Time;durP1;ratioP1;P1;durP2;ratioP2;P2;SDS_P1;SDS_P2;PMS_P1;PMS_P2;Temp;Humidity;BMP_temperature;BMP_pressure;BME280_temperature;BME280_humidity;BME280_pressure;Samples;Min_cycle;Max_cycle;Signal;HPM_P1;HPM_P2
2023/04/03 00:01:17;;;;;;;6.38;2.03;;;;;;;3.67;100.00;-18126.66;4958632;28;20233;-82
2023/04/03 00:03:42;;;;;;;5.38;2.17;;;;;;;3.70;100.00;-18127.50;4956859;28;20035;-82
2023/04/03 00:06:10;;;;;;;5.18;1.90;;;;;;;3.68;100.00;-18126.78;4954492;28;20458;-83
2023/04/03 00:08:36;;;;;;;7.45;1.95;;;;;;;3.62;100.00;-18125.28;4953243;28;20051;-82
2023/04/03 00:11:02;;;;;;;4.95;2.20;;;;;;;3.60;100.00;-18124.72;4956436;28;20372;-83
2023/04/03 00:13:27;;;;;;;3.25;1.77;;;;;;;3.52;100.00;-18122.50;4955440;28;20046;-83
2023/04/03 00:15:53;;;;;;;6.03;1.98;;;;;;;3.43;100.00;-18120.16;4960010;28;20047;-83
2023/04/03 00:18:18;;;;;;;3.85;1.95;;;;;;;3.37;100.00;-18118.66;4955568;28;20042;-82
2023/04/03 00:20:43;;;;;;;5.55;1.85;;;;;;;3.35;100.00;-18117.94;4953241;28;20070;-82
2023/04/03 00:23:09;;;;;;;4.50;2.00;;;;;;;3.26;100.00;-18115.47;4949749;28;20050;-83
2023/04/03 00:25:35;;;;;;;4.03;2.20;;;;;;;3.18;100.00;-18113.38;4952495;28;20039;-81
2023/04/03 00:28:01;;;;;;;6.40;2.20;;;;;;;3.12;100.00;-18111.72;4951019;28;20043;-82
2023/04/03 00:30:26;;;;;;;3.97;1.92;;;;;;;3.18;100.00;-18113.38;4955899;28;20050;-82
2023/04/03 00:32:52;;;;;;;6.38;2.40;;;;;;;3.13;100.00;-18112.00;4949661;28;20043;-82
2023/04/03 00:35:19;;;;;;;5.25;2.30;;;;;;;3.09;100.00;-18110.91;4959677;28;20133;-82
2023/04/03 00:37:45;;;;;;;4.80;2.20;;;;;;;3.03;100.00;-18109.25;4962888;28;20051;-82
2023/04/03 00:40:12;;;;;;;4.10;2.10;;;;;;;3.02;100.00;-18108.97;4954917;28;20053;-82
2023/04/03 00:42:39;;;;;;;5.85;2.50;;;;;;;3.01;100.00;-18108.69;4951732;28;20047;-82
2023/04/03 00:45:05;;;;;;;5.20;2.30;;;;;;;2.98;100.00;-18108.00;4953983;28;20393;-82
2023/04/03 00:47:31;;;;;;;5.28;2.10;;;;;;;2.98;100.00;-18107.88;4965420;28;20135;-82
2023/04/03 00:49:57;;;;;;;8.85;2.67;;;;;;;2.89;100.00;-18105.66;4956721;28;20066;-82
2023/04/03 00:52:27;;;;;;;7.32;2.25;;;;;;;2.85;100.00;-18104.53;4957067;28;20043;-82
2023/04/03 00:54:56;;;;;;;4.75;1.92;;;;;;;2.87;100.00;-18104.97;4954567;28;20047;-82
2023/04/03 00:57:22;;;;;;;7.25;2.45;;;;;;;2.84;100.00;-18104.25;4957144;28;20063;-82
2023/04/03 00:59:57;;;;;;;6.57;2.10;;;;;;;2.83;100.00;-18104.00;4951638;28;20567;-82
2023/04/03 01:02:23;;;;;;;6.10;2.58;;;;;;;2.84;100.00;-18104.25;4971892;28;20046;-82
2023/04/03 01:04:48;;;;;;;6.13;2.22;;;;;;;2.82;100.00;-18103.72;4953057;28;20090;-82
2023/04/03 01:07:17;;;;;;;7.45;2.45;;;;;;;2.81;100.00;-18103.44;4958241;28;20049;-83
2023/04/03 01:09:44;;;;;;;6.15;2.70;;;;;;;2.85;100.00;-18104.41;4969737;28;20070;-82
2023/04/03 01:12:30;;;;;;;6.40;2.67;;;;;;;2.72;100.00;-18100.94;4969775;28;20525;-82
2023/04/03 01:14:59;;;;;;;6.43;2.70;;;;;;;2.65;100.00;-18099.00;4956303;28;20043;-82
2023/04/03 01:17:35;;;;;;;6.80;2.55;;;;;;;2.64;100.00;-18098.72;4953833;28;20121;-82
2023/04/03 01:20:22;;;;;;;6.13;2.55;;;;;;;2.52;100.00;-18095.56;4951166;28;20045;-82
2023/04/03 01:23:05;;;;;;;5.80;2.40;;;;;;;2.57;100.00;-18096.94;4969842;28;20046;-82
2023/04/03 01:25:31;;;;;;;4.85;2.85;;;;;;;2.54;100.00;-18095.97;4964779;28;20094;-83
2023/04/03 01:27:57;;;;;;;7.55;2.95;;;;;;;2.62;100.00;-18098.19;4954589;28;20050;-84
2023/04/03 01:30:27;;;;;;;6.57;2.47;;;;;;;2.61;100.00;-18097.91;4953113;28;20047;-83
2023/04/03 01:32:53;;;;;;;5.40;2.25;;;;;;;2.50;100.00;-18095.00;4952040;28;20043;-81
2023/04/03 01:35:18;;;;;;;5.53;2.65;;;;;;;2.43;100.00;-18093.19;4955674;28;20070;-83
2023/04/03 01:37:43;;;;;;;7.03;2.60;;;;;;;2.51;100.00;-18095.28;4949937;28;20793;-82
2023/04/03 01:40:09;;;;;;;4.97;2.47;;;;;;;2.44;100.00;-18093.47;4957848;28;20273;-82
2023/04/03 01:42:34;;;;;;;5.63;2.25;;;;;;;2.45;100.00;-18093.75;4966589;28;20054;-86
2023/04/03 01:45:00;;;;;;;7.22;2.70;;;;;;;2.44;100.00;-18093.47;4957920;28;20038;-85
2023/04/03 01:47:25;;;;;;;5.10;2.40;;;;;;;2.45;100.00;-18093.63;4970923;28;20046;-85
2023/04/03 01:49:50;;;;;;;6.28;2.20;;;;;;;2.31;100.00;-18089.88;4952315;28;20094;-82
2023/04/03 01:52:16;;;;;;;4.97;2.50;;;;;;;2.36;100.00;-18091.13;4950066;28;20051;-85
2023/04/03 01:54:41;;;;;;;9.02;2.22;;;;;;;2.38;100.00;-18091.81;4955759;28;20055;-81
2023/04/03 01:57:06;;;;;;;7.07;2.92;;;;;;;2.30;100.00;-18089.59;4956042;28;20043;-86
2023/04/03 01:59:32;;;;;;;4.78;2.30;;;;;;;2.31;100.00;-18089.88;4950228;28;20602;-81
2023/04/03 02:01:57;;;;;;;5.47;2.50;;;;;;;2.22;100.00;-18087.41;4951023;28;20451;-81
2023/04/03 02:04:22;;;;;;;6.50;2.40;;;;;;;2.22;100.00;-18087.53;4950047;28;20062;-86
2023/04/03 02:06:48;;;;;;;6.82;2.63;;;;;;;2.29;100.00;-18089.19;4955999;28;20035;-82
2023/04/03 02:09:13;;;;;;;5.93;2.20;;;;;;;2.32;100.00;-18090.16;4952634;28;20047;-84
2023/04/03 02:11:39;;;;;;;5.13;2.45;;;;;;;2.28;100.00;-18089.06;4948368;28;20514;-85
2023/04/03 02:14:04;;;;;;;5.60;2.70;;;;;;;2.33;100.00;-18090.28;4950418;28;20090;-82
2023/04/03 02:16:30;;;;;;;5.40;2.40;;;;;;;2.20;100.00;-18086.84;4947472;28;20050;-82
2023/04/03 02:18:56;;;;;;;5.70;2.40;;;;;;;2.13;100.00;-18085.03;4960041;28;20067;-83
2023/04/03 02:21:22;;;;;;;7.55;2.80;;;;;;;2.09;100.00;-18083.94;4955229;28;20044;-80
2023/04/03 02:23:47;;;;;;;8.85;3.15;;;;;;;2.11;100.00;-18084.34;4959041;28;20047;-82
2023/04/03 02:26:14;;;;;;;6.80;2.20;;;;;;;2.14;100.00;-18085.19;4959419;28;20055;-82
2023/04/03 02:28:40;;;;;;;9.88;2.85;;;;;;;2.16;100.00;-18085.88;4955522;28;20047;-82
2023/04/03 02:31:07;;;;;;;7.20;2.38;;;;;;;2.14;100.00;-18085.31;4946476;28;20098;-82
2023/04/03 02:33:33;;;;;;;8.23;2.05;;;;;;;2.03;100.00;-18082.41;4951370;28;20046;-83
2023/04/03 02:35:59;;;;;;;5.40;2.35;;;;;;;2.03;100.00;-18082.41;4952568;28;20047;-83
2023/04/03 02:38:25;;;;;;;6.70;2.58;;;;;;;1.98;100.00;-18080.88;4956721;28;20534;-79
2023/04/03 02:40:51;;;;;;;5.68;2.60;;;;;;;1.96;100.00;-18080.47;4952403;28;20047;-82
2023/04/03 02:43:16;;;;;;;5.03;2.20;;;;;;;1.91;100.00;-18079.09;4953059;28;20097;-82
2023/04/03 02:45:41;;;;;;;8.00;2.58;;;;;;;1.94;100.00;-18079.94;4950201;28;20097;-82
2023/04/03 02:48:07;;;;;;;6.57;2.40;;;;;;;1.90;100.00;-18078.81;4950870;28;20414;-82
2023/04/03 02:50:32;;;;;;;7.72;2.78;;;;;;;1.88;100.00;-18078.25;4949897;28;20047;-82
2023/04/03 02:52:57;;;;;;;10.52;2.53;;;;;;;1.84;100.00;-18077.00;4952260;28;20065;-81
2023/04/03 02:55:23;;;;;;;10.15;2.95;;;;;;;1.79;100.00;-18075.91;4948189;28;20067;-82
2023/04/03 02:57:48;;;;;;;6.05;2.50;;;;;;;1.61;100.00;-18070.78;4952512;28;20058;-82
2023/04/03 03:00:14;;;;;;;5.50;3.00;;;;;;;1.74;100.00;-18074.38;4955170;28;20106;-82
2023/04/03 03:02:40;;;;;;;6.60;2.88;;;;;;;1.63;100.00;-18071.34;4957942;28;20134;-82
2023/04/03 03:05:06;;;;;;;7.40;2.58;;;;;;;1.70;100.00;-18073.41;4965192;28;20039;-83
2023/04/03 03:07:31;;;;;;;5.72;2.63;;;;;;;1.55;100.00;-18069.41;4955087;28;20036;-78
2023/04/03 03:09:57;;;;;;;10.73;3.60;;;;;;;1.48;100.00;-18067.34;4958281;28;20494;-81
2023/04/03 03:12:24;;;;;;;7.57;2.90;;;;;;;1.51;100.00;-18068.16;4955193;28;20059;-82
2023/04/03 03:14:49;;;;;;;8.13;3.30;;;;;;;1.56;100.00;-18069.69;4960686;28;20039;-81
2023/04/03 03:17:14;;;;;;;7.32;2.83;;;;;;;1.65;100.00;-18071.91;4955867;28;20045;-82
2023/04/03 03:19:40;;;;;;;8.05;3.10;;;;;;;1.57;100.00;-18069.81;4957737;28;20070;-82
2023/04/03 03:22:05;;;;;;;8.43;2.85;;;;;;;1.47;100.00;-18067.19;4956738;28;20046;-81
2023/04/03 03:24:31;;;;;;;5.47;2.80;;;;;;;1.46;100.00;-18066.91;4953955;28;20047;-81
2023/04/03 03:26:56;;;;;;;7.95;3.20;;;;;;;1.58;100.00;-18070.25;4960517;28;20071;-81
2023/04/03 03:29:22;;;;;;;7.47;2.70;;;;;;;1.48;100.00;-18067.47;4956759;28;20458;-80
2023/04/03 03:31:47;;;;;;;7.68;2.72;;;;;;;1.32;100.00;-18063.03;4961085;28;20051;-81
2023/04/03 03:34:12;;;;;;;6.32;2.75;;;;;;;1.32;100.00;-18063.03;4958701;28;20142;-81
2023/04/03 03:36:38;;;;;;;5.78;2.70;;;;;;;1.32;100.00;-18063.03;4953836;28;20063;-80
2023/04/03 03:39:04;;;;;;;9.93;3.45;;;;;;;1.34;100.00;-18063.59;4951787;28;20642;-78
2023/04/03 03:41:29;;;;;;;7.28;3.10;;;;;;;1.38;100.00;-18064.69;4952253;28;20119;-81
2023/04/03 03:43:55;;;;;;;6.72;3.03;;;;;;;1.41;100.00;-18065.53;4961841;28;20043;-80
2023/04/03 03:46:20;;;;;;;6.55;2.92;;;;;;;1.34;100.00;-18063.59;4960446;28;20045;-78
2023/04/03 03:48:46;;;;;;;8.70;2.92;;;;;;;1.31;100.00;-18062.75;4961364;28;20094;-80
2023/04/03 03:51:11;;;;;;;7.00;3.00;;;;;;;1.33;100.00;-18063.31;4960604;28;22433;-81
2023/04/03 03:53:36;;;;;;;4.70;2.38;;;;;;;1.31;100.00;-18062.91;4959095;28;20043;-78
2023/04/03 03:56:02;;;;;;;7.93;3.40;;;;;;;1.19;100.00;-18059.44;4952057;28;20054;-80
2023/04/03 03:58:27;;;;;;;8.43;2.88;;;;;;;1.21;100.00;-18060.13;4958989;28;20050;-80
2023/04/03 04:00:53;;;;;;;7.13;3.08;;;;;;;1.16;100.00;-18058.63;4951538;28;20062;-79
2023/04/03 04:03:18;;;;;;;7.88;2.97;;;;;;;1.04;100.00;-18055.56;4948986;28;20158;-80
2023/04/03 04:05:43;;;;;;;6.45;2.83;;;;;;;1.06;100.00;-18056.13;4959043;28;20047;-79
2023/04/03 04:08:09;;;;;;;6.53;2.58;;;;;;;1.05;100.00;-18055.69;4957982;28;20071;-79
2023/04/03 04:10:36;;;;;;;5.28;2.67;;;;;;;1.01;100.00;-18054.59;4957831;28;20055;-78
2023/04/03 04:13:01;;;;;;;5.68;2.58;;;;;;;0.99;100.00;-18054.19;4959000;28;20052;-79
2023/04/03 04:15:26;;;;;;;7.25;3.10;;;;;;;1.00;100.00;-18054.47;4959161;28;20046;-80
2023/04/03 04:17:53;;;;;;;7.22;2.60;;;;;;;0.88;100.00;-18051.28;4953898;28;20264;-79
2023/04/03 04:20:18;;;;;;;6.40;2.40;;;;;;;1.03;100.00;-18055.28;4954340;28;20043;-79
2023/04/03 04:22:44;;;;;;;7.82;2.50;;;;;;;0.92;100.00;-18052.09;4953473;28;20055;-78
2023/04/03 04:25:09;;;;;;;6.35;2.50;;;;;;;0.97;100.00;-18053.63;4952408;28;20090;-78
2023/04/03 04:27:35;;;;;;;5.47;2.53;;;;;;;1.10;100.00;-18057.09;4950324;28;20554;-78
2023/04/03 04:30:00;;;;;;;6.55;2.40;;;;;;;1.20;100.00;-18059.72;4947153;28;20525;-79
2023/04/03 04:32:26;;;;;;;8.15;2.75;;;;;;;1.26;100.00;-18061.38;4953071;28;20544;-78
2023/04/03 04:34:51;;;;;;;7.68;2.90;;;;;;;1.02;100.00;-18055.00;4948418;28;20078;-78
2023/04/03 04:37:17;;;;;;;6.07;2.25;;;;;;;1.00;100.00;-18054.47;4952692;28;20038;-78
2023/04/03 04:39:42;;;;;;;4.97;2.30;;;;;;;0.97;100.00;-18053.63;4950259;28;20522;-80
2023/04/03 04:42:12;;;;;;;9.85;2.78;;;;;;;0.96;100.00;-18053.34;4962648;28;20542;-79
2023/04/03 04:44:38;;;;;;;6.20;2.55;;;;;;;0.90;100.00;-18051.69;4944587;28;20035;-80
2023/04/03 04:47:03;;;;;;;7.53;2.95;;;;;;;0.89;100.00;-18051.41;4952891;28;20123;-80
2023/04/03 04:49:28;;;;;;;8.32;2.55;;;;;;;0.93;100.00;-18052.53;4947108;28;20421;-79
2023/04/03 04:51:54;;;;;;;7.10;2.47;;;;;;;0.75;100.00;-18047.69;4968815;28;20051;-81
2023/04/03 04:54:19;;;;;;;8.65;2.60;;;;;;;0.68;100.00;-18045.88;4960975;28;20324;-80
2023/04/03 04:56:44;;;;;;;8.35;2.50;;;;;;;0.59;100.00;-18043.38;4949358;28;20051;-80
2023/04/03 04:59:10;;;;;;;7.15;2.72;;;;;;;0.62;100.00;-18044.06;4943655;28;20406;-80
2023/04/03 05:01:35;;;;;;;8.77;2.47;;;;;;;0.59;100.00;-18043.38;4944396;28;20134;-79
2023/04/03 05:04:01;;;;;;;5.97;2.70;;;;;;;0.52;100.00;-18041.31;4957713;28;20063;-80
2023/04/03 05:06:26;;;;;;;6.05;2.70;;;;;;;0.56;100.00;-18042.41;4948094;28;20034;-81
2023/04/03 05:08:51;;;;;;;5.30;2.88;;;;;;;0.55;100.00;-18042.13;4951948;28;20039;-80
2023/04/03 05:11:17;;;;;;;4.97;2.40;;;;;;;0.51;100.00;-18041.03;4950646;28;20102;-80
2023/04/03 05:13:42;;;;;;;6.32;2.95;;;;;;;0.52;100.00;-18041.44;4954910;28;20818;-80
2023/04/03 05:16:07;;;;;;;6.63;2.58;;;;;;;0.52;100.00;-18041.44;4953066;28;20594;-80
2023/04/03 05:18:33;;;;;;;6.40;2.80;;;;;;;0.56;100.00;-18042.41;4955497;28;20502;-80
2023/04/03 05:20:58;;;;;;;8.05;2.72;;;;;;;0.56;100.00;-18042.53;4960200;28;20035;-79
2023/04/03 05:23:24;;;;;;;8.35;2.88;;;;;;;0.56;100.00;-18042.53;4951972;28;20051;-80
2023/04/03 05:25:49;;;;;;;6.07;2.30;;;;;;;0.59;100.00;-18043.25;4955895;28;20113;-80
2023/04/03 05:28:15;;;;;;;5.22;2.55;;;;;;;0.64;100.00;-18044.63;4951693;28;20402;-80
2023/04/03 05:30:41;;;;;;;7.65;2.80;;;;;;;0.60;100.00;-18043.66;4953008;28;20053;-80
2023/04/03 05:33:06;;;;;;;7.78;3.42;;;;;;;0.64;100.00;-18044.63;4951354;28;20195;-81
2023/04/03 05:35:32;;;;;;;8.35;3.33;;;;;;;0.68;100.00;-18045.88;4947840;28;20126;-79
2023/04/03 05:37:57;;;;;;;6.93;2.92;;;;;;;0.72;100.00;-18046.69;4949336;28;20039;-80
2023/04/03 05:40:22;;;;;;;7.18;2.67;;;;;;;0.67;100.00;-18045.59;4950770;28;20047;-80
2023/04/03 05:42:48;;;;;;;9.40;3.05;;;;;;;0.74;100.00;-18047.25;4961238;28;20756;-79
2023/04/03 05:45:13;;;;;;;4.90;2.60;;;;;;;0.70;100.00;-18046.16;4950988;28;20122;-79
2023/04/03 05:47:39;;;;;;;11.00;3.53;;;;;;;0.74;100.00;-18047.25;4950171;28;20062;-79
2023/04/03 05:50:05;;;;;;;8.55;3.05;;;;;;;0.79;100.00;-18048.66;4947322;28;20097;-79
2023/04/03 05:52:35;;;;;;;7.25;2.92;;;;;;;0.77;100.00;-18048.09;4952010;28;20055;-79
2023/04/03 05:55:00;;;;;;;7.78;2.88;;;;;;;0.76;100.00;-18047.81;4952792;28;20043;-79
2023/04/03 05:57:25;;;;;;;7.40;2.40;;;;;;;0.79;100.00;-18048.66;4951299;28;20187;-79
2023/04/03 05:59:51;;;;;;;6.00;2.67;;;;;;;0.82;100.00;-18049.47;4951722;28;20050;-79
2023/04/03 06:02:23;;;;;;;5.07;2.40;;;;;;;0.90;100.00;-18051.81;4954223;28;20049;-79
2023/04/03 06:04:50;;;;;;;9.35;3.15;;;;;;;0.92;100.00;-18052.25;4945043;28;20046;-79
2023/04/03 06:07:19;;;;;;;8.20;2.55;;;;;;;0.88;100.00;-18051.13;4947451;28;20043;-79
2023/04/03 06:09:44;;;;;;;6.70;2.47;;;;;;;0.96;100.00;-18053.22;4948595;28;20504;-78
2023/04/03 06:12:11;;;;;;;7.93;2.38;;;;;;;1.00;100.00;-18054.31;4950845;28;20046;-78
2023/04/03 06:14:37;;;;;;;5.30;2.17;;;;;;;1.05;100.00;-18055.69;4950394;28;20043;-78
2023/04/03 06:17:02;;;;;;;6.55;2.20;;;;;;;1.13;100.00;-18058.06;4948955;28;20051;-78
2023/04/03 06:19:28;;;;;;;7.05;2.65;;;;;;;1.22;100.00;-18060.28;4949487;28;20050;-79
2023/04/03 06:21:54;;;;;;;4.63;1.85;;;;;;;1.19;100.00;-18059.59;4954700;28;20484;-80
2023/04/03 06:24:21;;;;;;;5.97;2.45;;;;;;;1.22;100.00;-18060.41;4950718;28;20081;-80
2023/04/03 06:26:47;;;;;;;8.23;2.90;;;;;;;1.29;100.00;-18062.22;4949519;28;20051;-79
2023/04/03 06:29:12;;;;;;;5.43;2.10;;;;;;;1.33;100.00;-18063.47;4948875;28;20466;-80
2023/04/03 06:31:38;;;;;;;6.90;2.50;;;;;;;1.37;100.00;-18064.44;4949749;28;20058;-80
2023/04/03 06:34:04;;;;;;;5.95;2.50;;;;;;;1.42;100.00;-18065.81;4956967;28;20054;-79
2023/04/03 06:36:29;;;;;;;9.57;2.45;;;;;;;1.50;100.00;-18067.88;4954652;28;20046;-80
2023/04/03 06:38:55;;;;;;;6.03;2.22;;;;;;;1.51;100.00;-18068.16;4950394;28;20575;-79
2023/04/03 06:41:21;;;;;;;8.63;2.70;;;;;;;1.61;100.00;-18070.78;4949424;28;20114;-79
2023/04/03 06:43:47;;;;;;;5.60;2.53;;;;;;;1.66;100.00;-18072.19;4951589;28;20093;-80
2023/04/03 06:46:17;;;;;;;5.15;1.67;;;;;;;1.70;100.00;-18073.41;4949346;28;20067;-80
2023/04/03 06:48:44;;;;;;;8.00;2.00;;;;;;;1.72;100.00;-18073.84;4952581;28;20039;-79
2023/04/03 06:51:27;;;;;;;7.82;2.47;;;;;;;1.71;100.00;-18073.56;4955829;28;20043;-80
2023/04/03 06:53:55;;;;;;;5.88;2.22;;;;;;;1.78;100.00;-18075.63;4953306;28;20039;-80
2023/04/03 06:56:21;;;;;;;6.72;2.58;;;;;;;1.89;100.00;-18078.53;4958349;28;20102;-80
2023/04/03 06:58:47;;;;;;;7.70;2.20;;;;;;;2.02;100.00;-18082.13;4955026;28;20043;-81
2023/04/03 07:01:15;;;;;;;5.85;1.98;;;;;;;2.10;100.00;-18084.06;4966152;28;20066;-80
2023/04/03 07:03:40;;;;;;;5.18;2.15;;;;;;;2.13;100.00;-18084.91;4958522;28;20122;-80
2023/04/03 07:06:07;;;;;;;4.88;1.67;;;;;;;2.17;100.00;-18086.00;4962485;28;20566;-81
2023/04/03 07:08:34;;;;;;;7.00;2.33;;;;;;;2.21;100.00;-18087.25;4962836;28;20054;-81
2023/04/03 07:10:59;;;;;;;7.15;2.25;;;;;;;2.26;100.00;-18088.63;4956941;28;20039;-80
2023/04/03 07:13:25;;;;;;;4.35;1.88;;;;;;;2.33;100.00;-18090.44;4959104;28;20130;-81
2023/04/03 07:15:50;;;;;;;6.75;1.70;;;;;;;2.53;100.00;-18095.69;4960831;28;20055;-82
2023/04/03 07:18:17;;;;;;;5.03;1.70;;;;;;;2.65;100.00;-18099.00;4966049;28;20066;-80
2023/04/03 07:20:42;;;;;;;4.45;1.70;;;;;;;2.78;100.00;-18102.59;4964429;28;20130;-80
2023/04/03 07:23:08;;;;;;;5.57;1.77;;;;;;;2.88;100.00;-18105.38;4959961;28;20126;-80
2023/04/03 07:25:33;;;;;;;6.63;1.60;;;;;;;2.96;100.00;-18107.31;4953373;28;20067;-80
2023/04/03 07:27:59;;;;;;;4.70;1.85;;;;;;;3.00;100.00;-18108.41;4953979;28;20458;-81
2023/04/03 07:30:25;;;;;;;5.78;1.80;;;;;;;3.02;100.00;-18108.97;4953439;28;20039;-81
2023/04/03 07:32:51;;;;;;;4.90;1.85;;;;;;;3.08;100.00;-18110.78;4949501;28;20518;-80
2023/04/03 07:35:17;;;;;;;4.43;1.38;;;;;;;3.01;100.00;-18108.81;4954792;28;20046;-80
2023/04/03 07:37:42;;;;;;;6.07;1.73;;;;;;;3.05;100.00;-18109.78;4955056;28;20129;-80
2023/04/03 07:40:08;;;;;;;8.05;1.20;;;;;;;3.05;100.00;-18109.94;4963937;28;20039;-82
2023/04/03 07:42:34;;;;;;;4.63;1.30;;;;;;;3.11;100.00;-18111.47;4958290;28;20054;-83
2023/04/03 07:45:01;;;;;;;4.75;1.50;;;;;;;3.16;100.00;-18112.84;4959002;28;20358;-82
2023/04/03 07:47:27;;;;;;;4.90;1.50;;;;;;;3.23;100.00;-18114.63;4958764;28;20147;-81
2023/04/03 07:49:52;;;;;;;4.05;1.40;;;;;;;3.43;100.00;-18120.03;4964119;28;20087;-81
2023/04/03 07:52:17;;;;;;;4.68;1.33;;;;;;;3.40;100.00;-18119.34;4953161;28;20051;-81
2023/04/03 07:54:43;;;;;;;4.10;1.65;;;;;;;3.52;100.00;-18122.50;4957746;28;20039;-81
2023/04/03 07:57:08;;;;;;;4.25;1.30;;;;;;;3.59;100.00;-18124.44;4951723;28;20047;-81
2023/04/03 07:59:34;;;;;;;3.90;1.27;;;;;;;3.71;100.00;-18127.63;4956376;28;20051;-80
2023/04/03 08:01:59;;;;;;;3.40;1.58;;;;;;;3.74;100.00;-18128.59;4966006;28;20043;-80
2023/04/03 08:04:25;;;;;;;2.85;1.15;;;;;;;3.78;100.00;-18129.69;4959159;28;20039;-83
2023/04/03 08:06:51;;;;;;;3.55;1.20;;;;;;;3.89;100.00;-18132.47;4960103;28;20399;-80
2023/04/03 08:09:18;;;;;;;4.70;1.30;;;;;;;3.92;100.00;-18133.28;4953169;28;20047;-83
2023/04/03 08:11:44;;;;;;;3.80;1.20;;;;;;;3.98;100.00;-18134.94;4954790;28;20625;-83
2023/04/03 08:14:15;;;;;;;3.35;1.38;;;;;;;4.13;100.00;-18139.09;4957053;28;20151;-81
2023/04/03 08:16:41;;;;;;;2.50;0.88;;;;;;;4.28;100.00;-18143.22;4956377;28;20380;-81
2023/04/03 08:19:07;;;;;;;2.72;1.13;;;;;;;4.24;100.00;-18142.13;4965812;28;20113;-82
2023/04/03 08:21:32;;;;;;;6.32;1.30;;;;;;;4.31;100.00;-18143.94;4956852;28;20530;-81
2023/04/03 08:23:58;;;;;;;5.43;1.63;;;;;;;4.43;100.00;-18147.09;4959811;28;20723;-80
2023/04/03 08:26:23;;;;;;;4.50;1.20;;;;;;;4.60;100.00;-18151.78;4973583;28;20039;-84
2023/04/03 08:28:49;;;;;;;3.95;1.20;;;;;;;4.73;100.00;-18155.38;4958514;28;20129;-81
2023/04/03 08:31:18;;;;;;;3.75;1.17;;;;;;;4.74;100.00;-18155.53;4953075;28;20051;-81
2023/04/03 08:33:44;;;;;;;;;;;;;;;4.79;100.00;-18156.78;4960555;28;20079;-85
2023/04/03 08:36:19;;;;;;;4.15;1.10;;;;;;;4.77;100.00;-18156.22;4958107;28;19957;-83
2023/04/03 08:38:44;;;;;;;2.03;1.13;;;;;;;4.87;100.00;-18158.97;4949664;28;20054;-81
2023/04/03 08:41:16;;;;;;;2.72;1.00;;;;;;;5.02;100.00;-18162.97;4952356;28;20103;-81
2023/04/03 08:44:01;;;;;;;2.80;1.20;;;;;;;5.09;100.00;-18165.06;4962097;28;20880;-82
2023/04/03 08:46:37;;;;;;;3.38;1.00;;;;;;;5.16;100.00;-18166.84;4950465;28;20047;-81
2023/04/03 08:49:09;;;;;;;4.85;1.33;;;;;;;5.29;100.00;-18170.28;4964655;28;20055;-83
2023/04/03 08:51:35;;;;;;;4.15;1.00;;;;;;;5.33;100.00;-18171.41;4946462;28;20043;-82
2023/04/03 08:54:33;;;;;;;2.65;0.88;;;;;;;5.47;100.00;-18175.13;4951753;28;20062;-83
2023/04/03 08:57:02;;;;;;;4.07;1.20;;;;;;;5.49;100.00;-18175.81;4953324;28;20623;-83
2023/04/03 08:59:32;;;;;;;4.22;0.93;;;;;;;5.59;100.00;-18178.44;4944027;28;20043;-83
2023/04/03 09:02:01;;;;;;;2.40;1.20;;;;;;;5.72;100.00;-18182.03;4972359;28;20035;-81
2023/04/03 09:04:31;;;;;;;2.25;0.90;;;;;;;5.72;88.34;-18181.88;4952774;28;20047;-80
2023/04/03 09:07:07;;;;;;;3.10;0.80;;;;;;;5.77;89.17;-18183.25;4954121;28;20069;-80
2023/04/03 09:09:40;;;;;;;2.58;0.73;;;;;;;5.99;90.20;-18189.22;4954338;28;20142;-83
2023/04/03 09:12:15;;;;;;;2.28;1.10;;;;;;;6.04;96.35;-18190.59;4950084;28;20449;-83
2023/04/03 09:15:18;;;;;;;2.90;0.98;;;;;;;6.15;89.52;-18193.47;4949466;28;20054;-82
2023/04/03 09:17:44;;;;;;;3.47;1.00;;;;;;;6.27;97.08;-18196.78;4972767;28;20047;-80
2023/04/03 09:20:19;;;;;;;3.03;0.77;;;;;;;6.43;79.87;-18201.06;4948938;28;20380;-82
2023/04/03 09:22:45;;;;;;;1.92;0.68;;;;;;;6.43;92.42;-18201.19;4950097;28;20050;-83
2023/04/03 09:25:19;;;;;;;2.95;1.13;;;;;;;6.53;79.11;-18203.81;4954512;28;20058;-84
2023/04/03 09:27:45;;;;;;;4.05;0.77;;;;;;;6.59;81.84;-18205.34;4958100;28;20062;-83
2023/04/03 09:30:21;;;;;;;2.63;0.80;;;;;;;6.68;78.68;-18207.81;4951195;28;20051;-83
2023/04/03 09:32:51;;;;;;;3.88;0.80;;;;;;;6.68;75.96;-18207.81;4948995;28;20047;-83
2023/04/03 09:35:22;;;;;;;3.85;1.02;;;;;;;6.76;71.47;-18210.03;4947129;28;20131;-84
2023/04/03 09:37:51;;;;;;;1.70;0.80;;;;;;;6.85;75.22;-18212.50;4949561;28;20043;-82
2023/04/03 09:40:25;;;;;;;1.75;0.80;;;;;;;7.04;80.23;-18217.47;4941533;28;20114;-84
2023/04/03 09:43:01;;;;;;;2.63;0.80;;;;;;;7.16;70.70;-18220.91;4952770;28;20043;-84
2023/04/03 09:45:33;;;;;;;2.70;0.88;;;;;;;7.18;70.32;-18221.31;4948475;28;20035;-84
2023/04/03 09:48:13;;;;;;;3.20;0.82;;;;;;;7.12;65.18;-18219.66;4948669;28;20055;-83
2023/04/03 09:51:02;;;;;;;0.85;0.55;;;;;;;7.21;64.48;-18222.16;4971625;28;20609;-84
2023/04/03 09:53:31;;;;;;;;;;;;;;;7.26;57.68;-18223.41;4962068;28;20496;-84
2023/04/03 09:55:57;;;;;;;3.67;0.97;;;;;;;7.18;65.21;-18221.47;4965244;28;20573;-81
2023/04/03 09:58:40;;;;;;;3.80;1.50;;;;;;;7.35;69.32;-18226.00;4948052;28;20055;-83
2023/04/03 10:01:22;;;;;;;3.25;1.45;;;;;;;7.37;60.17;-18226.56;4943144;28;20043;-84
2023/04/03 10:04:04;;;;;;;5.65;1.27;;;;;;;7.41;64.82;-18227.53;4942549;28;20039;-84
2023/04/03 10:06:31;;;;;;;1.55;0.80;;;;;;;7.44;67.53;-18228.50;4949232;28;20494;-83
2023/04/03 10:09:07;;;;;;;3.35;1.02;;;;;;;7.54;63.51;-18231.09;4936554;28;20069;-82
2023/04/03 10:11:32;;;;;;;1.85;0.75;;;;;;;7.63;61.34;-18233.59;4960225;28;20058;-84
2023/04/03 10:14:04;;;;;;;2.08;0.73;;;;;;;7.63;64.76;-18233.44;4947539;28;20043;-83
2023/04/03 10:16:39;;;;;;;3.35;0.65;;;;;;;7.66;61.27;-18234.41;4944254;28;20039;-81
2023/04/03 10:19:41;;;;;;;2.00;0.60;;;;;;;7.67;61.01;-18234.56;4943119;28;20039;-83
2023/04/03 10:22:22;;;;;;;2.70;0.85;;;;;;;7.90;58.94;-18240.75;4953009;28;20074;-84
2023/04/03 10:25:13;;;;;;;2.05;0.70;;;;;;;7.81;60.31;-18238.41;4945732;28;20071;-82
2023/04/03 10:28:08;;;;;;;3.03;0.80;;;;;;;7.82;65.87;-18238.53;4963467;28;20047;-83
2023/04/03 10:31:06;;;;;;;2.10;0.73;;;;;;;7.95;65.87;-18242.13;4962173;28;20043;-83
2023/04/03 10:34:00;;;;;;;3.40;0.70;;;;;;;8.10;64.67;-18246.13;4943976;28;20475;-83
2023/04/03 10:36:33;;;;;;;1.98;0.80;;;;;;;8.14;60.66;-18247.34;4946283;28;20047;-83
2023/04/03 10:39:05;;;;;;;4.38;1.17;;;;;;;8.10;59.81;-18246.13;4946527;28;20562;-82
2023/04/03 10:41:39;;;;;;;1.27;0.80;;;;;;;8.05;61.32;-18244.88;4945215;28;20055;-84
2023/04/03 10:44:44;;;;;;;2.90;1.10;;;;;;;8.20;62.25;-18248.88;4943958;28;20043;-83
2023/04/03 10:47:35;;;;;;;2.05;0.77;;;;;;;8.24;61.25;-18249.97;4945383;28;20043;-82
2023/04/03 10:50:23;;;;;;;3.95;0.88;;;;;;;8.36;61.59;-18253.28;4959759;28;20428;-83
2023/04/03 10:53:14;;;;;;;3.80;1.05;;;;;;;8.41;62.98;-18254.38;4935066;28;20056;-82
2023/04/03 10:55:52;;;;;;;3.60;0.93;;;;;;;8.30;60.21;-18251.63;4958912;28;20543;-84
2023/04/03 10:58:34;;;;;;;2.85;0.95;;;;;;;8.29;59.83;-18251.22;4944782;28;20042;-84
2023/04/03 11:01:06;;;;;;;3.30;0.75;;;;;;;8.38;63.40;-18253.56;4945079;28;20399;-84
2023/04/03 11:03:40;;;;;;;1.95;0.73;;;;;;;8.34;59.24;-18252.72;4946515;28;20051;-83
2023/04/03 11:06:10;;;;;;;2.55;0.80;;;;;;;8.41;62.00;-18254.53;4946362;28;20484;-84
2023/04/03 11:08:45;;;;;;;4.13;1.88;;;;;;;8.46;63.03;-18255.75;4944027;28;20051;-83
2023/04/03 11:11:25;;;;;;;2.50;0.85;;;;;;;8.44;60.21;-18255.22;4945095;28;20043;-81
2023/04/03 11:14:13;;;;;;;3.47;0.80;;;;;;;8.54;69.81;-18257.97;4944407;28;20043;-81
2023/04/03 11:16:57;;;;;;;3.08;0.88;;;;;;;8.67;61.67;-18261.53;4956939;28;20079;-84
2023/04/03 11:19:38;;;;;;;4.70;0.90;;;;;;;8.59;58.37;-18259.47;4943603;28;20047;-81
2023/04/03 11:22:15;;;;;;;4.18;1.27;;;;;;;8.47;59.80;-18256.16;4949379;28;20043;-84
2023/04/03 11:24:46;;;;;;;2.90;0.82;;;;;;;8.61;59.25;-18259.75;4963274;28;20051;-83
2023/04/03 11:27:22;;;;;;;1.30;0.75;;;;;;;8.62;60.03;-18260.16;4948299;28;20051;-80
2023/04/03 11:29:49;;;;;;;2.35;0.70;;;;;;;8.76;66.42;-18264.00;4948014;28;20043;-83
2023/04/03 11:32:29;;;;;;;3.10;0.85;;;;;;;8.72;63.63;-18262.78;4948230;28;20039;-83
2023/04/03 11:34:58;;;;;;;3.33;1.05;;;;;;;8.75;67.43;-18263.75;4947343;28;20499;-83